sensor_id;sensor_type;location;lat;lon;timestamp;P1;durP1;ratioP1;P2;durP2;ratioP2
20124;SDS011;10223;50.862;4.360;2024-03-23T00:53:44;12.03;;;2.93;;
20124;SDS011;10223;50.862;4.360;2024-03-23T00:56:11;9.80;;;3.30;;
20124;SDS011;10223;50.862;4.360;2024-03-23T00:58:37;9.10;;;3.07;;
20124;SDS011;10223;50.862;4.360;2024-03-23T01:01:04;11.10;;;2.87;;
20124;SDS011;10223;50.862;4.360;2024-03-23T01:03:30;9.73;;;2.83;;
20124;SDS011;10223;50.862;4.360;2024-03-23T01:05:58;12.77;;;3.00;;
20124;SDS011;10223;50.862;4.360;2024-03-23T01:08:25;11.93;;;2.93;;
20124;SDS011;10223;50.862;4.360;2024-03-23T01:10:56;12.53;;;2.80;;
20124;SDS011;10223;50.862;4.360;2024-03-23T01:13:23;15.90;;;3.37;;
20124;SDS011;10223;50.862;4.360;2024-03-23T01:15:50;13.33;;;2.57;;
20124;SDS011;10223;50.862;4.360;2024-03-23T01:18:17;12.83;;;3.03;;
20124;SDS011;10223;50.862;4.360;2024-03-23T01:20:44;10.77;;;3.17;;
20124;SDS011;10223;50.862;4.360;2024-03-23T01:23:10;12.57;;;3.60;;
20124;SDS011;10223;50.862;4.360;2024-03-23T01:25:37;11.53;;;3.67;;
20124;SDS011;10223;50.862;4.360;2024-03-23T01:28:04;12.40;;;3.90;;
20124;SDS011;10223;50.862;4.360;2024-03-23T01:30:32;9.27;;;3.80;;
20124;SDS011;10223;50.862;4.360;2024-03-23T01:32:58;12.67;;;3.70;;
20124;SDS011;10223;50.862;4.360;2024-03-23T01:35:25;12.60;;;3.93;;
20124;SDS011;10223;50.862;4.360;2024-03-23T01:37:51;16.90;;;4.40;;
20124;SDS011;10223;50.862;4.360;2024-03-23T01:40:18;15.80;;;4.37;;
20124;SDS011;10223;50.862;4.360;2024-03-23T01:42:54;13.20;;;4.83;;
20124;SDS011;10223;50.862;4.360;2024-03-23T01:45:23;17.73;;;4.50;;
20124;SDS011;10223;50.862;4.360;2024-03-23T01:47:49;13.13;;;5.10;;
20124;SDS011;10223;50.862;4.360;2024-03-23T01:50:17;15.70;;;4.80;;
20124;SDS011;10223;50.862;4.360;2024-03-23T01:52:43;14.10;;;4.53;;
20124;SDS011;10223;50.862;4.360;2024-03-23T01:55:13;12.33;;;4.57;;
20124;SDS011;10223;50.862;4.360;2024-03-23T01:57:39;15.43;;;4.73;;
20124;SDS011;10223;50.862;4.360;2024-03-23T02:00:07;14.77;;;6.10;;
20124;SDS011;10223;50.862;4.360;2024-03-23T02:02:36;13.27;;;5.30;;
20124;SDS011;10223;50.862;4.360;2024-03-23T02:05:02;19.43;;;5.90;;
20124;SDS011;10223;50.862;4.360;2024-03-23T02:07:29;15.17;;;5.10;;
20124;SDS011;10223;50.862;4.360;2024-03-23T02:09:56;15.03;;;5.60;;
20124;SDS011;10223;50.862;4.360;2024-03-23T02:12:22;19.90;;;6.50;;
20124;SDS011;10223;50.862;4.360;2024-03-23T02:14:49;18.37;;;6.77;;
20124;SDS011;10223;50.862;4.360;2024-03-23T02:17:15;15.67;;;6.20;;
20124;SDS011;10223;50.862;4.360;2024-03-23T02:19:44;17.67;;;6.30;;
20124;SDS011;10223;50.862;4.360;2024-03-23T02:22:11;18.03;;;6.80;;
20124;SDS011;10223;50.862;4.360;2024-03-23T02:24:40;22.90;;;6.73;;
20124;SDS011;10223;50.862;4.360;2024-03-23T02:27:06;16.77;;;7.60;;
20124;SDS011;10223;50.862;4.360;2024-03-23T02:29:33;17.40;;;7.43;;
20124;SDS011;10223;50.862;4.360;2024-03-23T02:31:59;28.03;;;6.93;;
20124;SDS011;10223;50.862;4.360;2024-03-23T02:34:26;17.67;;;7.27;;
20124;SDS011;10223;50.862;4.360;2024-03-23T02:36:52;17.00;;;7.07;;
20124;SDS011;10223;50.862;4.360;2024-03-23T02:39:19;21.57;;;6.73;;
20124;SDS011;10223;50.862;4.360;2024-03-23T02:41:46;20.80;;;7.30;;
20124;SDS011;10223;50.862;4.360;2024-03-23T02:44:13;18.13;;;7.20;;
20124;SDS011;10223;50.862;4.360;2024-03-23T02:46:39;21.87;;;7.67;;
20124;SDS011;10223;50.862;4.360;2024-03-23T02:49:06;20.73;;;7.83;;
20124;SDS011;10223;50.862;4.360;2024-03-23T02:51:32;20.73;;;7.17;;
20124;SDS011;10223;50.862;4.360;2024-03-23T02:53:59;21.43;;;8.00;;
20124;SDS011;10223;50.862;4.360;2024-03-23T02:56:25;20.97;;;8.67;;
20124;SDS011;10223;50.862;4.360;2024-03-23T02:58:54;22.10;;;7.23;;
20124;SDS011;10223;50.862;4.360;2024-03-23T03:01:20;20.83;;;7.90;;
20124;SDS011;10223;50.862;4.360;2024-03-23T03:03:47;20.77;;;7.50;;
20124;SDS011;10223;50.862;4.360;2024-03-23T03:06:22;30.57;;;8.97;;
20124;SDS011;10223;50.862;4.360;2024-03-23T03:08:49;22.37;;;8.13;;
20124;SDS011;10223;50.862;4.360;2024-03-23T03:11:15;22.87;;;8.53;;
20124;SDS011;10223;50.862;4.360;2024-03-23T03:13:42;27.17;;;9.00;;
20124;SDS011;10223;50.862;4.360;2024-03-23T03:16:10;24.23;;;8.40;;
20124;SDS011;10223;50.862;4.360;2024-03-23T03:18:37;27.80;;;8.70;;
20124;SDS011;10223;50.862;4.360;2024-03-23T03:21:05;20.20;;;8.50;;
20124;SDS011;10223;50.862;4.360;2024-03-23T03:23:35;21.37;;;7.80;;
20124;SDS011;10223;50.862;4.360;2024-03-23T03:26:01;18.97;;;7.03;;
20124;SDS011;10223;50.862;4.360;2024-03-23T03:28:29;21.83;;;7.23;;
20124;SDS011;10223;50.862;4.360;2024-03-23T03:30:56;17.90;;;6.57;;
20124;SDS011;10223;50.862;4.360;2024-03-23T03:33:24;23.87;;;8.20;;
20124;SDS011;10223;50.862;4.360;2024-03-23T03:35:51;22.03;;;8.00;;
20124;SDS011;10223;50.862;4.360;2024-03-23T03:38:18;22.83;;;8.23;;
20124;SDS011;10223;50.862;4.360;2024-03-23T03:40:44;22.57;;;7.93;;
20124;SDS011;10223;50.862;4.360;2024-03-23T03:43:11;22.70;;;7.40;;
20124;SDS011;10223;50.862;4.360;2024-03-23T03:45:37;22.83;;;8.30;;
20124;SDS011;10223;50.862;4.360;2024-03-23T03:48:04;27.60;;;8.30;;
20124;SDS011;10223;50.862;4.360;2024-03-23T03:50:32;20.33;;;8.27;;
20124;SDS011;10223;50.862;4.360;2024-03-23T03:52:59;21.93;;;8.57;;
20124;SDS011;10223;50.862;4.360;2024-03-23T03:55:24;21.67;;;7.60;;
20124;SDS011;10223;50.862;4.360;2024-03-23T03:57:52;19.97;;;7.77;;
20124;SDS011;10223;50.862;4.360;2024-03-23T04:00:18;19.27;;;8.13;;
20124;SDS011;10223;50.862;4.360;2024-03-23T04:02:45;22.37;;;8.07;;
20124;SDS011;10223;50.862;4.360;2024-03-23T04:05:11;18.20;;;7.27;;
20124;SDS011;10223;50.862;4.360;2024-03-23T04:07:40;23.40;;;7.57;;
20124;SDS011;10223;50.862;4.360;2024-03-23T04:10:06;14.20;;;6.77;;
20124;SDS011;10223;50.862;4.360;2024-03-23T04:12:33;16.03;;;7.50;;
20124;SDS011;10223;50.862;4.360;2024-03-23T04:14:59;22.60;;;9.70;;
20124;SDS011;10223;50.862;4.360;2024-03-23T04:17:28;16.63;;;6.27;;
20124;SDS011;10223;50.862;4.360;2024-03-23T04:19:57;18.23;;;6.27;;
20124;SDS011;10223;50.862;4.360;2024-03-23T04:22:24;16.37;;;6.00;;
20124;SDS011;10223;50.862;4.360;2024-03-23T04:24:52;14.37;;;5.70;;
20124;SDS011;10223;50.862;4.360;2024-03-23T04:27:19;16.77;;;5.97;;
20124;SDS011;10223;50.862;4.360;2024-03-23T04:29:46;16.30;;;6.10;;
20124;SDS011;10223;50.862;4.360;2024-03-23T04:32:14;15.47;;;5.60;;
20124;SDS011;10223;50.862;4.360;2024-03-23T04:34:44;15.33;;;5.63;;
20124;SDS011;10223;50.862;4.360;2024-03-23T04:37:10;18.80;;;5.70;;
20124;SDS011;10223;50.862;4.360;2024-03-23T04:39:37;15.53;;;5.40;;
20124;SDS011;10223;50.862;4.360;2024-03-23T04:42:06;15.50;;;5.00;;
20124;SDS011;10223;50.862;4.360;2024-03-23T04:44:33;13.80;;;5.53;;
20124;SDS011;10223;50.862;4.360;2024-03-23T04:47:00;15.93;;;5.00;;
20124;SDS011;10223;50.862;4.360;2024-03-23T04:49:27;16.90;;;5.47;;
20124;SDS011;10223;50.862;4.360;2024-03-23T04:51:54;15.30;;;4.77;;
20124;SDS011;10223;50.862;4.360;2024-03-23T04:54:21;17.23;;;5.40;;
20124;SDS011;10223;50.862;4.360;2024-03-23T04:56:48;15.50;;;5.17;;
20124;SDS011;10223;50.862;4.360;2024-03-23T04:59:16;18.57;;;5.03;;
20124;SDS011;10223;50.862;4.360;2024-03-23T05:01:42;15.20;;;5.17;;
20124;SDS011;10223;50.862;4.360;2024-03-23T05:04:09;14.63;;;4.87;;
20124;SDS011;10223;50.862;4.360;2024-03-23T05:06:37;16.73;;;5.10;;
20124;SDS011;10223;50.862;4.360;2024-03-23T05:09:04;16.90;;;4.93;;
20124;SDS011;10223;50.862;4.360;2024-03-23T05:11:31;20.23;;;5.40;;
20124;SDS011;10223;50.862;4.360;2024-03-23T05:13:58;17.17;;;5.13;;
20124;SDS011;10223;50.862;4.360;2024-03-23T05:16:26;16.07;;;5.33;;
20124;SDS011;10223;50.862;4.360;2024-03-23T05:18:53;11.87;;;5.33;;
20124;SDS011;10223;50.862;4.360;2024-03-23T05:21:19;15.27;;;5.77;;
20124;SDS011;10223;50.862;4.360;2024-03-23T05:23:46;19.43;;;6.37;;
20124;SDS011;10223;50.862;4.360;2024-03-23T05:26:12;17.73;;;6.10;;
20124;SDS011;10223;50.862;4.360;2024-03-23T05:28:39;12.13;;;5.20;;
20124;SDS011;10223;50.862;4.360;2024-03-23T05:31:05;10.47;;;4.93;;
20124;SDS011;10223;50.862;4.360;2024-03-23T05:33:35;19.07;;;5.60;;
20124;SDS011;10223;50.862;4.360;2024-03-23T05:36:03;15.37;;;6.10;;
20124;SDS011;10223;50.862;4.360;2024-03-23T05:38:33;18.23;;;5.80;;
20124;SDS011;10223;50.862;4.360;2024-03-23T05:40:59;18.00;;;5.17;;
20124;SDS011;10223;50.862;4.360;2024-03-23T05:43:27;17.60;;;5.10;;
20124;SDS011;10223;50.862;4.360;2024-03-23T05:45:53;19.43;;;5.13;;
20124;SDS011;10223;50.862;4.360;2024-03-23T05:48:21;15.70;;;4.17;;
20124;SDS011;10223;50.862;4.360;2024-03-23T05:50:49;11.93;;;4.43;;
20124;SDS011;10223;50.862;4.360;2024-03-23T05:53:16;19.23;;;4.07;;
20124;SDS011;10223;50.862;4.360;2024-03-23T05:55:43;13.77;;;3.70;;
20124;SDS011;10223;50.862;4.360;2024-03-23T05:58:09;21.90;;;4.20;;
20124;SDS011;10223;50.862;4.360;2024-03-23T06:00:35;19.30;;;4.10;;
20124;SDS011;10223;50.862;4.360;2024-03-23T06:03:03;15.47;;;4.10;;
20124;SDS011;10223;50.862;4.360;2024-03-23T06:05:29;22.17;;;3.10;;
20124;SDS011;10223;50.862;4.360;2024-03-23T06:07:57;14.10;;;3.23;;
20124;SDS011;10223;50.862;4.360;2024-03-23T06:10:23;8.83;;;2.60;;
20124;SDS011;10223;50.862;4.360;2024-03-23T06:12:50;18.73;;;3.53;;
20124;SDS011;10223;50.862;4.360;2024-03-23T06:15:17;17.13;;;3.53;;
20124;SDS011;10223;50.862;4.360;2024-03-23T06:17:47;9.73;;;2.80;;
20124;SDS011;10223;50.862;4.360;2024-03-23T06:20:13;12.83;;;2.73;;
20124;SDS011;10223;50.862;4.360;2024-03-23T06:22:40;10.00;;;2.57;;
20124;SDS011;10223;50.862;4.360;2024-03-23T06:25:08;16.00;;;3.57;;
20124;SDS011;10223;50.862;4.360;2024-03-23T06:27:37;15.60;;;3.57;;
20124;SDS011;10223;50.862;4.360;2024-03-23T06:30:04;15.93;;;3.47;;
20124;SDS011;10223;50.862;4.360;2024-03-23T06:32:32;12.07;;;2.90;;
20124;SDS011;10223;50.862;4.360;2024-03-23T06:34:58;13.33;;;2.60;;
20124;SDS011;10223;50.862;4.360;2024-03-23T06:37:25;12.10;;;2.63;;
20124;SDS011;10223;50.862;4.360;2024-03-23T06:39:51;16.83;;;3.07;;
20124;SDS011;10223;50.862;4.360;2024-03-23T06:42:20;7.10;;;2.77;;
20124;SDS011;10223;50.862;4.360;2024-03-23T06:44:45;21.00;;;3.20;;
20124;SDS011;10223;50.862;4.360;2024-03-23T06:47:12;12.40;;;2.90;;
20124;SDS011;10223;50.862;4.360;2024-03-23T06:49:38;14.80;;;2.70;;
20124;SDS011;10223;50.862;4.360;2024-03-23T06:52:05;10.77;;;2.70;;
20124;SDS011;10223;50.862;4.360;2024-03-23T06:54:31;18.77;;;2.83;;
20124;SDS011;10223;50.862;4.360;2024-03-23T06:56:58;9.63;;;2.10;;
20124;SDS011;10223;50.862;4.360;2024-03-23T06:59:25;15.87;;;2.50;;
20124;SDS011;10223;50.862;4.360;2024-03-23T07:01:52;13.70;;;2.97;;
20124;SDS011;10223;50.862;4.360;2024-03-23T07:04:18;17.03;;;3.67;;
20124;SDS011;10223;50.862;4.360;2024-03-23T07:06:45;15.50;;;3.23;;
20124;SDS011;10223;50.862;4.360;2024-03-23T07:09:11;12.10;;;2.90;;
20124;SDS011;10223;50.862;4.360;2024-03-23T07:11:38;12.53;;;2.93;;
20124;SDS011;10223;50.862;4.360;2024-03-23T07:14:04;4.87;;;1.80;;
20124;SDS011;10223;50.862;4.360;2024-03-23T07:16:32;5.67;;;1.80;;
20124;SDS011;10223;50.862;4.360;2024-03-23T07:18:58;5.13;;;1.20;;
20124;SDS011;10223;50.862;4.360;2024-03-23T07:21:25;4.83;;;1.20;;
20124;SDS011;10223;50.862;4.360;2024-03-23T07:23:51;11.70;;;2.87;;
20124;SDS011;10223;50.862;4.360;2024-03-23T07:26:18;11.10;;;2.30;;
20124;SDS011;10223;50.862;4.360;2024-03-23T07:28:44;4.63;;;2.07;;
20124;SDS011;10223;50.862;4.360;2024-03-23T07:31:12;11.97;;;2.20;;
20124;SDS011;10223;50.862;4.360;2024-03-23T07:33:43;12.53;;;2.90;;
20124;SDS011;10223;50.862;4.360;2024-03-23T07:36:11;7.10;;;2.60;;
20124;SDS011;10223;50.862;4.360;2024-03-23T07:38:37;15.67;;;2.80;;
20124;SDS011;10223;50.862;4.360;2024-03-23T07:41:06;13.37;;;3.37;;
20124;SDS011;10223;50.862;4.360;2024-03-23T07:43:33;9.07;;;2.63;;
20124;SDS011;10223;50.862;4.360;2024-03-23T07:46:00;16.83;;;3.17;;
20124;SDS011;10223;50.862;4.360;2024-03-23T07:48:26;12.40;;;2.50;;
20124;SDS011;10223;50.862;4.360;2024-03-23T07:50:59;13.33;;;2.60;;
20124;SDS011;10223;50.862;4.360;2024-03-23T07:53:26;10.17;;;2.60;;
20124;SDS011;10223;50.862;4.360;2024-03-23T07:55:54;12.77;;;2.50;;
20124;SDS011;10223;50.862;4.360;2024-03-23T07:58:24;15.03;;;3.00;;
20124;SDS011;10223;50.862;4.360;2024-03-23T08:00:52;7.20;;;2.47;;
20124;SDS011;10223;50.862;4.360;2024-03-23T08:03:19;17.47;;;2.93;;
20124;SDS011;10223;50.862;4.360;2024-03-23T08:05:45;9.87;;;2.63;;
20124;SDS011;10223;50.862;4.360;2024-03-23T08:08:13;14.77;;;2.43;;
20124;SDS011;10223;50.862;4.360;2024-03-23T08:10:48;11.47;;;2.40;;
20124;SDS011;10223;50.862;4.360;2024-03-23T08:13:15;13.23;;;2.63;;
20124;SDS011;10223;50.862;4.360;2024-03-23T08:15:42;9.80;;;2.30;;
20124;SDS011;10223;50.862;4.360;2024-03-23T08:18:09;15.87;;;2.90;;
20124;SDS011;10223;50.862;4.360;2024-03-23T08:20:35;16.70;;;2.97;;
20124;SDS011;10223;50.862;4.360;2024-03-23T08:23:02;12.53;;;2.67;;
20124;SDS011;10223;50.862;4.360;2024-03-23T08:25:32;12.60;;;2.37;;
20124;SDS011;10223;50.862;4.360;2024-03-23T08:27:58;13.57;;;2.80;;
20124;SDS011;10223;50.862;4.360;2024-03-23T08:30:25;14.63;;;2.50;;
20124;SDS011;10223;50.862;4.360;2024-03-23T08:32:51;8.53;;;2.57;;
20124;SDS011;10223;50.862;4.360;2024-03-23T08:35:18;11.87;;;2.93;;
20124;SDS011;10223;50.862;4.360;2024-03-23T08:37:45;14.67;;;2.53;;
20124;SDS011;10223;50.862;4.360;2024-03-23T08:40:12;15.07;;;3.20;;
20124;SDS011;10223;50.862;4.360;2024-03-23T08:42:39;9.43;;;1.93;;
20124;SDS011;10223;50.862;4.360;2024-03-23T08:45:09;15.27;;;3.10;;
20124;SDS011;10223;50.862;4.360;2024-03-23T08:47:35;11.77;;;2.80;;
20124;SDS011;10223;50.862;4.360;2024-03-23T08:50:02;12.23;;;2.93;;
20124;SDS011;10223;50.862;4.360;2024-03-23T08:52:31;11.37;;;2.20;;
20124;SDS011;10223;50.862;4.360;2024-03-23T08:54:56;12.80;;;2.33;;
20124;SDS011;10223;50.862;4.360;2024-03-23T08:57:23;17.87;;;2.80;;
20124;SDS011;10223;50.862;4.360;2024-03-23T08:59:51;14.47;;;2.97;;
20124;SDS011;10223;50.862;4.360;2024-03-23T09:02:18;14.20;;;2.70;;
20124;SDS011;10223;50.862;4.360;2024-03-23T09:04:44;7.37;;;2.90;;
20124;SDS011;10223;50.862;4.360;2024-03-23T09:07:11;13.20;;;1.93;;
20124;SDS011;10223;50.862;4.360;2024-03-23T09:09:37;9.73;;;2.33;;
20124;SDS011;10223;50.862;4.360;2024-03-23T09:12:05;9.60;;;2.20;;
20124;SDS011;10223;50.862;4.360;2024-03-23T09:14:31;9.07;;;1.73;;
20124;SDS011;10223;50.862;4.360;2024-03-23T09:17:00;10.07;;;2.20;;
20124;SDS011;10223;50.862;4.360;2024-03-23T09:19:26;7.37;;;1.90;;
20124;SDS011;10223;50.862;4.360;2024-03-23T09:21:54;19.63;;;3.50;;
20124;SDS011;10223;50.862;4.360;2024-03-23T09:24:20;12.23;;;2.47;;
20124;SDS011;10223;50.862;4.360;2024-03-23T09:26:47;6.80;;;2.50;;
20124;SDS011;10223;50.862;4.360;2024-03-23T09:29:13;7.93;;;1.90;;
20124;SDS011;10223;50.862;4.360;2024-03-23T09:31:40;10.73;;;3.00;;
20124;SDS011;10223;50.862;4.360;2024-03-23T09:34:07;6.70;;;2.30;;
20124;SDS011;10223;50.862;4.360;2024-03-23T09:36:34;16.30;;;3.17;;
20124;SDS011;10223;50.862;4.360;2024-03-23T09:39:00;13.33;;;2.97;;
20124;SDS011;10223;50.862;4.360;2024-03-23T09:41:28;5.00;;;1.97;;
20124;SDS011;10223;50.862;4.360;2024-03-23T09:43:54;9.33;;;1.97;;
20124;SDS011;10223;50.862;4.360;2024-03-23T09:46:21;15.60;;;2.87;;
20124;SDS011;10223;50.862;4.360;2024-03-23T09:48:48;14.27;;;2.90;;
20124;SDS011;10223;50.862;4.360;2024-03-23T09:51:16;7.27;;;2.37;;
20124;SDS011;10223;50.862;4.360;2024-03-23T09:53:42;14.77;;;2.90;;
20124;SDS011;10223;50.862;4.360;2024-03-23T09:56:09;10.20;;;2.57;;
20124;SDS011;10223;50.862;4.360;2024-03-23T09:58:36;5.90;;;2.13;;
20124;SDS011;10223;50.862;4.360;2024-03-23T10:01:06;11.23;;;2.30;;
20124;SDS011;10223;50.862;4.360;2024-03-23T10:03:41;7.17;;;2.23;;
20124;SDS011;10223;50.862;4.360;2024-03-23T10:06:11;13.47;;;2.53;;
20124;SDS011;10223;50.862;4.360;2024-03-23T10:08:38;6.27;;;2.77;;
20124;SDS011;10223;50.862;4.360;2024-03-23T10:11:14;12.20;;;2.97;;
20124;SDS011;10223;50.862;4.360;2024-03-23T10:13:41;9.47;;;2.40;;
20124;SDS011;10223;50.862;4.360;2024-03-23T10:16:09;9.10;;;2.30;;
20124;SDS011;10223;50.862;4.360;2024-03-23T10:18:50;7.13;;;1.90;;
20124;SDS011;10223;50.862;4.360;2024-03-23T10:21:18;6.90;;;1.80;;
20124;SDS011;10223;50.862;4.360;2024-03-23T10:23:47;7.13;;;1.97;;
20124;SDS011;10223;50.862;4.360;2024-03-23T10:26:16;8.10;;;1.93;;
20124;SDS011;10223;50.862;4.360;2024-03-23T10:31:33;5.73;;;1.70;;
20124;SDS011;10223;50.862;4.360;2024-03-23T10:34:00;18.37;;;2.67;;
20124;SDS011;10223;50.862;4.360;2024-03-23T10:36:29;7.90;;;2.47;;
20124;SDS011;10223;50.862;4.360;2024-03-23T10:38:57;10.20;;;2.73;;
20124;SDS011;10223;50.862;4.360;2024-03-23T10:41:26;12.57;;;3.63;;
20124;SDS011;10223;50.862;4.360;2024-03-23T10:43:52;7.63;;;1.60;;
20124;SDS011;10223;50.862;4.360;2024-03-23T10:46:21;5.60;;;1.60;;
20124;SDS011;10223;50.862;4.360;2024-03-23T10:48:50;9.30;;;1.20;;
20124;SDS011;10223;50.862;4.360;2024-03-23T10:51:17;6.53;;;1.97;;
20124;SDS011;10223;50.862;4.360;2024-03-23T10:53:43;7.53;;;1.83;;
20124;SDS011;10223;50.862;4.360;2024-03-23T10:56:16;8.30;;;1.90;;
20124;SDS011;10223;50.862;4.360;2024-03-23T10:58:45;7.27;;;1.80;;
20124;SDS011;10223;50.862;4.360;2024-03-23T11:01:14;6.40;;;1.10;;
20124;SDS011;10223;50.862;4.360;2024-03-23T11:03:46;8.73;;;1.20;;
20124;SDS011;10223;50.862;4.360;2024-03-23T11:06:33;5.30;;;1.10;;
20124;SDS011;10223;50.862;4.360;2024-03-23T11:09:01;5.10;;;1.70;;
20124;SDS011;10223;50.862;4.360;2024-03-23T11:11:29;7.70;;;1.27;;
20124;SDS011;10223;50.862;4.360;2024-03-23T11:13:58;5.37;;;0.90;;
20124;SDS011;10223;50.862;4.360;2024-03-23T11:16:25;9.03;;;0.90;;
20124;SDS011;10223;50.862;4.360;2024-03-23T11:19:33;7.43;;;1.50;;
20124;SDS011;10223;50.862;4.360;2024-03-23T11:22:01;5.03;;;1.10;;
20124;SDS011;10223;50.862;4.360;2024-03-23T11:24:30;5.50;;;1.20;;
20124;SDS011;10223;50.862;4.360;2024-03-23T11:26:57;5.77;;;1.10;;
20124;SDS011;10223;50.862;4.360;2024-03-23T11:29:29;8.77;;;1.60;;
20124;SDS011;10223;50.862;4.360;2024-03-23T11:31:56;5.07;;;1.17;;
20124;SDS011;10223;50.862;4.360;2024-03-23T11:34:23;7.13;;;0.90;;
20124;SDS011;10223;50.862;4.360;2024-03-23T11:36:49;5.23;;;1.03;;
20124;SDS011;10223;50.862;4.360;2024-03-23T11:39:28;8.07;;;1.27;;
20124;SDS011;10223;50.862;4.360;2024-03-23T11:41:55;8.47;;;1.30;;
20124;SDS011;10223;50.862;4.360;2024-03-23T11:44:25;4.57;;;1.07;;
20124;SDS011;10223;50.862;4.360;2024-03-23T11:46:51;6.90;;;1.10;;
20124;SDS011;10223;50.862;4.360;2024-03-23T11:49:19;7.37;;;1.30;;
20124;SDS011;10223;50.862;4.360;2024-03-23T11:51:51;7.30;;;1.43;;
20124;SDS011;10223;50.862;4.360;2024-03-23T11:54:20;4.73;;;1.30;;
20124;SDS011;10223;50.862;4.360;2024-03-23T11:56:58;5.80;;;1.20;;
20124;SDS011;10223;50.862;4.360;2024-03-23T11:59:34;8.97;;;1.30;;
20124;SDS011;10223;50.862;4.360;2024-03-23T12:02:08;3.60;;;1.00;;
20124;SDS011;10223;50.862;4.360;2024-03-23T12:04:36;11.23;;;1.30;;
20124;SDS011;10223;50.862;4.360;2024-03-23T12:07:12;9.23;;;1.47;;
20124;SDS011;10223;50.862;4.360;2024-03-23T12:09:40;9.43;;;1.20;;
20124;SDS011;10223;50.862;4.360;2024-03-23T12:12:11;8.20;;;1.30;;
20124;SDS011;10223;50.862;4.360;2024-03-23T12:14:41;15.23;;;5.27;;
20124;SDS011;10223;50.862;4.360;2024-03-23T12:17:08;3.60;;;1.00;;
20124;SDS011;10223;50.862;4.360;2024-03-23T12:19:39;6.57;;;1.03;;
20124;SDS011;10223;50.862;4.360;2024-03-23T12:22:06;11.47;;;1.33;;
20124;SDS011;10223;50.862;4.360;2024-03-23T12:24:34;3.00;;;0.70;;
20124;SDS011;10223;50.862;4.360;2024-03-23T12:27:03;6.93;;;0.83;;
20124;SDS011;10223;50.862;4.360;2024-03-23T12:29:32;3.43;;;0.57;;
20124;SDS011;10223;50.862;4.360;2024-03-23T12:31:59;3.37;;;0.80;;
20124;SDS011;10223;50.862;4.360;2024-03-23T12:34:27;3.40;;;0.73;;
20124;SDS011;10223;50.862;4.360;2024-03-23T12:36:55;6.97;;;1.50;;
20124;SDS011;10223;50.862;4.360;2024-03-23T12:39:22;3.03;;;0.93;;
20124;SDS011;10223;50.862;4.360;2024-03-23T12:41:48;5.43;;;0.93;;
20124;SDS011;10223;50.862;4.360;2024-03-23T12:44:17;3.30;;;1.20;;
20124;SDS011;10223;50.862;4.360;2024-03-23T12:46:45;4.63;;;1.00;;
20124;SDS011;10223;50.862;4.360;2024-03-23T12:49:12;4.97;;;1.23;;
20124;SDS011;10223;50.862;4.360;2024-03-23T12:51:38;4.53;;;1.30;;
20124;SDS011;10223;50.862;4.360;2024-03-23T12:54:05;4.60;;;1.33;;
20124;SDS011;10223;50.862;4.360;2024-03-23T12:56:31;5.27;;;1.00;;
20124;SDS011;10223;50.862;4.360;2024-03-23T12:59:01;3.50;;;1.13;;
20124;SDS011;10223;50.862;4.360;2024-03-23T13:01:27;5.55;;;0.90;;
20124;SDS011;10223;50.862;4.360;2024-03-23T13:03:55;5.05;;;1.02;;
20124;SDS011;10223;50.862;4.360;2024-03-23T13:06:21;5.47;;;1.35;;
20124;SDS011;10223;50.862;4.360;2024-03-23T13:08:48;5.97;;;1.00;;
20124;SDS011;10223;50.862;4.360;2024-03-23T13:11:17;4.47;;;0.70;;
20124;SDS011;10223;50.862;4.360;2024-03-23T13:13:44;4.10;;;0.70;;
20124;SDS011;10223;50.862;4.360;2024-03-23T13:16:16;3.90;;;0.70;;
20124;SDS011;10223;50.862;4.360;2024-03-23T13:18:43;3.70;;;0.80;;
20124;SDS011;10223;50.862;4.360;2024-03-23T13:21:11;3.23;;;0.80;;
20124;SDS011;10223;50.862;4.360;2024-03-23T13:23:38;3.67;;;0.70;;
20124;SDS011;10223;50.862;4.360;2024-03-23T13:26:07;3.03;;;0.90;;
20124;SDS011;10223;50.862;4.360;2024-03-23T13:28:34;5.23;;;0.77;;
20124;SDS011;10223;50.862;4.360;2024-03-23T13:31:01;5.00;;;1.13;;
20124;SDS011;10223;50.862;4.360;2024-03-23T13:33:29;3.03;;;1.10;;
20124;SDS011;10223;50.862;4.360;2024-03-23T13:35:55;3.63;;;0.80;;
20124;SDS011;10223;50.862;4.360;2024-03-23T13:38:27;5.53;;;1.30;;
20124;SDS011;10223;50.862;4.360;2024-03-23T13:40:53;5.90;;;0.70;;
20124;SDS011;10223;50.862;4.360;2024-03-23T13:43:21;3.07;;;0.80;;
20124;SDS011;10223;50.862;4.360;2024-03-23T13:45:48;11.33;;;1.53;;
20124;SDS011;10223;50.862;4.360;2024-03-23T13:48:17;6.50;;;1.20;;
20124;SDS011;10223;50.862;4.360;2024-03-23T13:50:44;6.43;;;1.83;;
20124;SDS011;10223;50.862;4.360;2024-03-23T13:53:12;5.53;;;1.10;;
20124;SDS011;10223;50.862;4.360;2024-03-23T13:55:43;8.30;;;1.17;;
20124;SDS011;10223;50.862;4.360;2024-03-23T13:58:13;3.67;;;0.80;;
20124;SDS011;10223;50.862;4.360;2024-03-23T14:00:39;10.87;;;1.30;;
20124;SDS011;10223;50.862;4.360;2024-03-23T14:03:07;5.43;;;0.97;;
20124;SDS011;10223;50.862;4.360;2024-03-23T14:05:33;1.97;;;0.63;;
20124;SDS011;10223;50.862;4.360;2024-03-23T14:08:00;2.67;;;1.00;;
20124;SDS011;10223;50.862;4.360;2024-03-23T14:10:26;4.17;;;1.00;;
20124;SDS011;10223;50.862;4.360;2024-03-23T14:12:55;6.27;;;1.00;;
20124;SDS011;10223;50.862;4.360;2024-03-23T14:15:21;6.07;;;0.83;;
20124;SDS011;10223;50.862;4.360;2024-03-23T14:17:51;7.33;;;1.30;;
20124;SDS011;10223;50.862;4.360;2024-03-23T14:20:17;4.83;;;1.30;;
20124;SDS011;10223;50.862;4.360;2024-03-23T14:22:44;3.30;;;0.83;;
20124;SDS011;10223;50.862;4.360;2024-03-23T14:25:10;5.93;;;0.80;;
20124;SDS011;10223;50.862;4.360;2024-03-23T14:27:37;5.23;;;1.10;;
20124;SDS011;10223;50.862;4.360;2024-03-23T14:30:05;4.70;;;1.10;;
20124;SDS011;10223;50.862;4.360;2024-03-23T14:32:33;4.60;;;1.03;;
20124;SDS011;10223;50.862;4.360;2024-03-23T14:34:59;5.17;;;1.10;;
20124;SDS011;10223;50.862;4.360;2024-03-23T14:37:26;4.77;;;0.90;;
20124;SDS011;10223;50.862;4.360;2024-03-23T14:39:55;6.30;;;1.60;;
20124;SDS011;10223;50.862;4.360;2024-03-23T14:42:22;6.70;;;1.30;;
20124;SDS011;10223;50.862;4.360;2024-03-23T14:44:49;3.20;;;1.00;;
20124;SDS011;10223;50.862;4.360;2024-03-23T14:47:17;2.90;;;0.93;;
20124;SDS011;10223;50.862;4.360;2024-03-23T14:49:43;4.23;;;1.20;;
20124;SDS011;10223;50.862;4.360;2024-03-23T14:52:12;4.27;;;0.80;;
20124;SDS011;10223;50.862;4.360;2024-03-23T14:54:38;4.90;;;1.00;;
20124;SDS011;10223;50.862;4.360;2024-03-23T14:57:05;5.73;;;1.33;;
20124;SDS011;10223;50.862;4.360;2024-03-23T14:59:31;2.53;;;0.87;;
20124;SDS011;10223;50.862;4.360;2024-03-23T15:01:58;4.87;;;1.17;;
20124;SDS011;10223;50.862;4.360;2024-03-23T15:04:27;6.97;;;1.10;;
20124;SDS011;10223;50.862;4.360;2024-03-23T15:06:54;8.37;;;1.37;;
20124;SDS011;10223;50.862;4.360;2024-03-23T15:09:29;3.33;;;1.23;;
20124;SDS011;10223;50.862;4.360;2024-03-23T15:11:57;5.17;;;0.80;;
20124;SDS011;10223;50.862;4.360;2024-03-23T15:14:23;5.10;;;1.30;;
20124;SDS011;10223;50.862;4.360;2024-03-23T15:16:50;8.47;;;1.37;;
20124;SDS011;10223;50.862;4.360;2024-03-23T15:19:17;4.37;;;1.20;;
20124;SDS011;10223;50.862;4.360;2024-03-23T15:21:46;8.13;;;1.80;;
20124;SDS011;10223;50.862;4.360;2024-03-23T15:24:12;4.03;;;1.10;;
20124;SDS011;10223;50.862;4.360;2024-03-23T15:26:39;8.73;;;1.27;;
20124;SDS011;10223;50.862;4.360;2024-03-23T15:29:05;5.30;;;1.53;;
20124;SDS011;10223;50.862;4.360;2024-03-23T15:31:41;4.93;;;1.23;;
20124;SDS011;10223;50.862;4.360;2024-03-23T15:34:07;7.13;;;1.40;;
20124;SDS011;10223;50.862;4.360;2024-03-23T15:36:35;7.07;;;1.70;;
20124;SDS011;10223;50.862;4.360;2024-03-23T15:39:04;6.87;;;1.97;;